Time;durP1;ratioP1;P1;durP2;ratioP2;P2;SDS_P1;SDS_P2;PMS_P1;PMS_P2;Temp;Humidity;BMP_temperature;BMP_pressure;BME280_temperature;BME280_humidity;BME280_pressure;Samples;Min_cycle;Max_cycle;Signal;HPM_P1;HPM_P2
2023/06/20 00:01:27;;;;;;;15.07;13.48;;;18.00;99.90;;;17.10;91.68;101041.03;4901254;28;20566;-76
2023/06/20 00:03:53;;;;;;;16.98;13.85;;;18.00;99.90;;;17.05;93.83;101043.16;4938191;28;20030;-76
2023/06/20 00:06:22;;;;;;;16.08;13.35;;;17.90;99.90;;;17.00;95.68;101039.00;4922796;28;20122;-76
2023/06/20 00:08:50;;;;;;;23.77;14.57;;;17.90;99.90;;;16.98;97.04;101045.38;4920157;28;20034;-75
2023/06/20 00:11:16;;;;;;;16.67;14.15;;;17.80;99.90;;;16.98;97.22;101048.88;4929148;28;20040;-76
2023/06/20 00:13:42;;;;;;;20.92;15.35;;;17.80;99.90;;;16.93;98.02;101045.72;4904073;28;20575;-75
2023/06/20 00:16:14;;;;;;;18.77;14.43;;;17.80;99.90;;;16.90;98.28;101043.22;4905815;28;20600;-76
2023/06/20 00:18:41;;;;;;;17.40;14.27;;;17.80;99.90;;;16.87;98.31;101043.47;4923647;28;20118;-76
2023/06/20 00:21:07;;;;;;;17.17;12.52;;;17.80;99.90;;;16.81;97.71;101055.34;4921187;28;20054;-76
2023/06/20 00:23:32;;;;;;;15.07;10.05;;;17.70;99.90;;;16.71;95.43;101054.22;4955572;28;20111;-75
2023/06/20 00:25:58;;;;;;;;;;;17.60;99.90;;;16.58;93.94;101053.34;4941642;28;20047;-75
2023/06/20 00:28:24;;;;;;;14.57;13.02;;;17.50;99.90;;;16.48;94.01;101052.25;4954244;28;20306;-75
2023/06/20 00:30:50;;;;;;;17.70;14.52;;;17.40;99.90;;;16.40;96.03;101045.66;4934290;28;20098;-75
2023/06/20 00:33:18;;;;;;;18.10;15.77;;;17.30;99.90;;;16.35;99.13;101050.41;4938096;28;20042;-75
2023/06/20 00:35:46;;;;;;;19.35;15.75;;;17.30;99.90;;;16.34;100.00;101050.50;4929672;28;20102;-76
2023/06/20 00:38:13;;;;;;;18.38;15.75;;;17.30;99.90;;;16.29;100.00;101057.94;4913929;28;20134;-75
2023/06/20 00:40:39;;;;;;;20.70;15.60;;;17.30;99.90;;;16.33;100.00;101054.97;4932325;28;20041;-75
2023/06/20 00:43:05;;;;;;;19.27;15.27;;;17.30;99.90;;;16.37;100.00;101050.31;4946203;28;20519;-75
2023/06/20 00:45:33;;;;;;;;;;;17.30;99.90;;;16.35;100.00;101057.53;4926846;28;20122;-75
2023/06/20 00:48:05;;;;;;;17.33;15.27;;;17.30;99.90;;;16.36;100.00;101053.91;4900879;28;20336;-75
2023/06/20 00:50:32;;;;;;;17.77;15.90;;;17.40;99.90;;;16.34;100.00;101050.50;4941602;28;20144;-76
2023/06/20 00:53:06;;;;;;;18.10;14.88;;;17.30;99.90;;;16.31;100.00;101056.03;4882455;28;20043;-75
2023/06/20 00:55:33;;;;;;;22.20;16.08;;;17.30;99.90;;;16.24;100.00;101050.28;4891742;28;20090;-75
2023/06/20 00:58:06;;;;;;;17.35;15.45;;;17.30;99.90;;;16.26;100.00;101053.66;4949879;28;20544;-76
2023/06/20 01:00:34;;;;;;;18.80;16.27;;;17.30;99.90;;;16.33;100.00;101048.81;4931612;28;20074;-75
2023/06/20 01:03:13;;;;;;;18.08;14.77;;;17.30;99.90;;;16.38;100.00;101054.69;4930847;28;20034;-75
2023/06/20 01:05:41;;;;;;;19.02;15.75;;;17.30;99.90;;;16.41;100.00;101057.13;4921002;28;20043;-75
2023/06/20 01:08:46;;;;;;;18.52;14.65;;;17.40;99.90;;;16.48;100.00;101053.13;4946544;28;20091;-75
2023/06/20 01:11:47;;;;;;;16.92;14.43;;;17.40;99.90;;;16.47;100.00;101055.88;4922619;28;20047;-75
2023/06/20 01:14:34;;;;;;;20.83;15.70;;;17.40;99.90;;;16.43;100.00;101049.91;4894502;28;20059;-74
2023/06/20 01:17:49;;;;;;;21.27;15.55;;;17.40;99.90;;;16.42;100.00;101055.34;4926306;28;20031;-75
2023/06/20 01:20:30;;;;;;;18.17;15.88;;;17.40;99.90;;;16.42;100.00;101058.84;4924724;28;20043;-75
2023/06/20 01:23:12;;;;;;;26.13;16.98;;;17.40;99.90;;;16.45;100.00;101061.28;4930999;28;20575;-75
2023/06/20 01:25:54;;;;;;;18.77;15.38;;;17.40;99.90;;;16.46;100.00;101062.13;4956764;28;20047;-74
2023/06/20 01:28:40;;;;;;;19.88;15.80;;;17.50;99.90;;;16.51;100.00;101055.56;4908968;28;20439;-75
2023/06/20 01:31:24;;;;;;;17.38;15.48;;;17.50;99.90;;;16.56;100.00;101064.06;4942208;28;20067;-76
2023/06/20 01:34:08;;;;;;;22.50;16.33;;;17.50;99.90;;;16.64;100.00;101062.75;4940904;28;20035;-75
2023/06/20 01:36:40;;;;;;;18.35;15.65;;;17.60;99.90;;;16.63;100.00;101053.91;4948740;28;20034;-75
2023/06/20 01:39:14;;;;;;;21.35;17.73;;;17.60;99.90;;;16.58;100.00;101053.34;4934882;28;20031;-75
2023/06/20 01:41:44;;;;;;;19.52;17.42;;;17.60;99.90;;;16.56;100.00;101049.94;4921607;28;20181;-75
2023/06/20 01:44:14;;;;;;;23.02;17.48;;;17.60;99.90;;;16.56;100.00;101049.94;4896835;28;20043;-75
2023/06/20 01:46:40;;;;;;;18.35;15.60;;;17.50;99.90;;;16.57;100.00;101052.50;4909830;28;20109;-75
2023/06/20 01:49:11;;;;;;;19.75;15.60;;;17.50;99.90;;;16.56;100.00;101050.78;4941114;28;20447;-75
2023/06/20 01:51:38;;;;;;;14.38;12.73;;;17.50;99.90;;;16.53;100.00;101050.16;4949528;28;20039;-75
2023/06/20 01:54:06;;;;;;;25.63;17.02;;;17.40;99.90;;;16.47;100.00;101043.44;4956959;28;20058;-75
2023/06/20 01:56:34;;;;;;;20.25;16.67;;;17.30;99.90;;;16.41;100.00;101046.50;4916354;28;20039;-75
2023/06/20 01:59:02;;;;;;;23.55;19.02;;;17.30;99.90;;;16.36;100.00;101048.59;4904098;28;20065;-75
2023/06/20 02:01:30;;;;;;;18.25;16.30;;;17.30;99.90;;;16.33;100.00;101048.81;4919922;28;20443;-75
2023/06/20 02:03:59;;;;;;;28.80;18.92;;;17.20;99.90;;;16.33;100.00;101043.50;4931492;28;20014;-75
2023/06/20 02:06:26;;;;;;;29.27;17.75;;;17.20;99.90;;;16.30;100.00;101041.88;4906273;28;20035;-75
2023/06/20 02:08:54;;;;;;;24.20;18.33;;;17.20;99.90;;;16.25;100.00;101032.53;4938972;28;20026;-75
2023/06/20 02:11:21;;;;;;;21.02;18.05;;;17.20;99.90;;;16.28;100.00;101032.31;4916893;28;20035;-75
2023/06/20 02:13:49;;;;;;;26.58;18.20;;;17.20;99.90;;;16.27;100.00;101036.78;4919569;28;20069;-75
2023/06/20 02:16:17;;;;;;;21.38;18.73;;;17.20;99.90;;;16.28;100.00;101032.31;4906204;28;20131;-76
2023/06/20 02:18:43;;;;;;;26.05;19.35;;;17.30;99.90;;;16.30;100.00;101033.06;4925538;28;20448;-75
2023/06/20 02:21:22;;;;;;;21.42;19.10;;;17.30;99.90;;;16.30;100.00;101033.91;4896526;28;20487;-75
2023/06/20 02:23:51;;;;;;;20.02;17.42;;;17.30;99.90;;;16.36;100.00;101035.31;4919491;28;20404;-75
2023/06/20 02:26:19;;;;;;;18.70;16.23;;;17.30;99.90;;;16.40;100.00;101034.16;4893933;28;20047;-75
2023/06/20 02:28:52;;;;;;;25.13;17.67;;;17.30;99.90;;;16.42;100.00;101034.91;4917555;28;20523;-74
2023/06/20 02:31:24;;;;;;;19.67;17.58;;;17.40;99.90;;;16.48;100.00;101034.53;4929973;28;20042;-75
2023/06/20 02:33:56;;;;;;;20.77;16.63;;;17.40;99.90;;;16.55;100.00;101037.63;4924450;28;20380;-75
2023/06/20 02:36:26;;;;;;;19.27;16.02;;;17.40;99.90;;;16.53;100.00;101029.75;4934055;28;20034;-75
2023/06/20 02:38:57;;;;;;;25.88;15.13;;;17.40;99.90;;;16.45;100.00;101034.72;4916153;28;20023;-75
2023/06/20 02:41:24;;;;;;;21.00;17.27;;;17.30;99.90;;;16.27;100.00;101028.81;4944749;28;20160;-75
2023/06/20 02:43:50;;;;;;;16.85;14.98;;;17.20;99.90;;;16.19;100.00;101031.94;4942032;28;20099;-75
2023/06/20 02:46:45;;;;;;;19.15;17.05;;;17.10;99.90;;;16.12;99.96;101029.81;4939351;28;20130;-74
2023/06/20 02:49:44;;;;;;;17.98;15.10;;;17.00;99.90;;;16.04;100.00;101029.44;4940943;28;20027;-75
2023/06/20 02:52:52;;;;;;;16.50;14.73;;;16.90;99.90;;;16.02;100.00;101036.66;4914226;28;20086;-75
2023/06/20 02:55:38;;;;;;;21.25;15.77;;;16.90;99.90;;;16.00;100.00;101042.06;4940730;28;20119;-74
2023/06/20 02:58:15;;;;;;;21.25;16.85;;;16.90;99.90;;;16.00;100.00;101034.09;4933333;28;20032;-75
2023/06/20 03:00:52;;;;;;;26.50;18.33;;;16.90;99.90;;;15.98;100.00;101043.97;5010066;23;20045;-78
2023/06/20 03:03:25;;;;;;;19.38;17.30;;;16.80;99.90;;;15.91;100.00;101045.31;4958596;28;20530;-78
2023/06/20 03:05:58;;;;;;;19.33;17.27;;;16.80;99.90;;;15.88;100.00;101045.53;4946490;28;20113;-78
2023/06/20 03:08:30;;;;;;;15.52;13.10;;;16.70;99.90;;;15.80;99.82;101046.00;4947573;28;20037;-78
2023/06/20 03:10:58;;;;;;;16.30;13.85;;;16.70;99.90;;;15.76;98.78;101042.69;4933009;28;20048;-78
2023/06/20 03:13:25;;;;;;;18.52;16.63;;;16.60;99.90;;;15.72;97.90;101043.84;4903991;28;20073;-78
2023/06/20 03:15:51;;;;;;;17.63;15.20;;;16.60;99.90;;;15.67;97.72;101043.25;4938754;28;20046;-78
2023/06/20 03:18:18;;;;;;;22.02;18.05;;;16.50;99.90;;;15.63;98.08;101051.50;4944946;28;20699;-78
2023/06/20 03:20:50;;;;;;;16.63;14.63;;;16.50;99.90;;;15.61;98.54;101051.59;4927955;28;20034;-78
2023/06/20 03:23:16;;;;;;;26.02;18.98;;;16.50;99.90;;;15.64;98.75;101059.38;4925085;28;20145;-78
2023/06/20 03:25:43;;;;;;;19.70;16.63;;;16.50;99.90;;;15.66;99.05;101060.13;4948474;28;20368;-77
2023/06/20 03:28:09;;;;;;;20.55;16.20;;;16.50;99.90;;;15.71;99.31;101068.69;4935785;28;20155;-77
2023/06/20 03:30:34;;;;;;;18.85;16.73;;;16.50;99.90;;;15.77;99.44;101060.34;4945157;28;20125;-78
2023/06/20 03:33:02;;;;;;;;;;;16.60;99.90;;;15.87;99.64;101059.75;4919938;28;20039;-77
2023/06/20 03:35:30;;;;;;;23.30;19.55;;;16.70;99.90;;;15.97;99.43;101058.22;4909370;28;19922;-78
2023/06/20 03:37:56;;;;;;;29.95;20.63;;;16.80;99.90;;;16.17;99.89;101060.41;4929347;28;20034;-78
2023/06/20 03:40:22;;;;;;;22.63;17.00;;;17.20;99.90;;;16.60;98.91;101059.41;4948004;28;20061;-78
2023/06/20 03:42:50;;;;;;;24.50;19.70;;;18.00;99.90;;;17.38;96.94;101075.38;4918368;28;20133;-77
2023/06/20 03:45:21;;;;;;;23.38;18.60;;;18.80;99.90;;;18.12;93.76;101069.31;4914562;28;20118;-78
2023/06/20 03:47:47;;;;;;;20.98;17.05;;;19.50;99.90;;;18.92;89.20;101079.41;4923378;28;20035;-77
2023/06/20 03:50:13;;;;;;;20.00;15.98;;;20.20;99.90;;;19.62;85.38;101075.78;4934751;28;20463;-78
2023/06/20 03:52:39;;;;;;;;;;;20.20;99.90;;;20.32;82.74;101071.91;4922258;28;20026;-77
2023/06/20 03:55:06;;;;;;;18.45;16.10;;;21.40;99.90;;;21.02;78.73;101078.59;4913710;28;19929;-77
2023/06/20 03:57:32;;;;;;;19.63;15.93;;;22.10;99.90;;;21.66;74.98;101082.03;4920123;28;20074;-77
2023/06/20 04:00:01;;;;;;;17.90;15.70;;;22.60;99.90;;;22.26;72.30;101082.09;4944756;28;20043;-77
2023/06/20 04:02:27;;;;;;;17.95;15.55;;;23.20;99.90;;;22.70;70.18;101085.25;4944555;28;20062;-78
2023/06/20 04:04:52;;;;;;;20.73;14.15;;;23.70;99.90;;;23.29;68.41;101092.25;4944758;28;20061;-77
2023/06/20 04:07:18;;;;;;;;;;;23.70;99.90;;;23.93;67.38;101101.38;4939030;28;20031;-77
2023/06/20 04:09:49;;;;;;;18.27;14.10;;;24.60;99.90;;;24.38;65.68;101096.16;4929727;28;19921;-77
2023/06/20 04:12:15;;;;;;;16.88;13.80;;;25.10;99.90;;;24.80;64.36;101098.28;4920697;28;20526;-77
2023/06/20 04:14:43;;;;;;;21.35;14.60;;;25.50;99.90;;;25.33;63.01;101100.03;4951182;28;20046;-77
2023/06/20 04:17:09;;;;;;;15.68;14.05;;;25.90;99.90;;;25.57;60.85;101094.78;4924202;28;20094;-77
2023/06/20 04:19:37;;;;;;;16.10;13.63;;;26.10;99.90;;;25.82;60.35;101099.47;4925192;28;20038;-78
2023/06/20 04:22:09;;;;;;;16.17;13.73;;;26.40;99.90;;;26.24;59.86;101104.88;4902457;28;20044;-77
2023/06/20 04:24:36;;;;;;;15.77;14.00;;;26.80;99.90;;;26.84;58.55;101111.03;4933204;28;20038;-77
2023/06/20 04:27:02;;;;;;;18.40;14.55;;;27.20;99.90;;;27.32;56.97;101110.19;4885151;28;20050;-78
2023/06/20 04:29:29;;;;;;;15.35;13.25;;;27.50;99.90;;;27.53;56.04;101112.31;4901688;28;20035;-77
2023/06/20 04:31:56;;;;;;;15.27;12.57;;;27.60;99.90;;;27.32;55.88;101109.31;4937859;28;20416;-78
2023/06/20 04:34:24;;;;;;;18.60;13.20;;;27.80;99.90;;;27.81;55.57;101111.91;4932233;28;20039;-78
2023/06/20 04:36:51;;;;;;;17.13;13.30;;;27.90;99.90;;;27.79;55.48;101119.34;4928830;28;20037;-77
2023/06/20 04:39:17;;;;;;;15.30;12.80;;;28.20;99.90;;;28.35;54.81;101128.22;4957110;28;20034;-78
2023/06/20 04:41:43;;;;;;;15.25;13.50;;;28.40;99.90;;;28.67;53.30;101122.81;4909091;28;20043;-78
2023/06/20 04:44:09;;;;;;;16.73;14.07;;;28.60;99.90;;;28.92;52.88;101132.44;4905469;28;20054;-78
2023/06/20 04:46:35;;;;;;;18.20;13.20;;;28.90;99.90;;;29.15;52.03;101134.31;4941116;28;20125;-78
2023/06/20 04:49:09;;;;;;;17.35;14.10;;;29.00;99.90;;;29.45;51.81;101135.19;4894435;28;20105;-78
2023/06/20 04:51:35;;;;;;;14.88;13.30;;;29.40;99.90;;;30.14;50.74;101144.94;4943921;28;20105;-78
2023/06/20 04:54:01;;;;;;;18.42;13.85;;;29.80;99.90;;;30.62;49.42;101150.72;4944717;28;20054;-78
2023/06/20 04:56:27;;;;;;;15.43;12.95;;;30.10;99.90;;;31.01;48.94;101154.88;4925444;28;20043;-78
2023/06/20 04:58:58;;;;;;;17.35;15.40;;;30.40;99.90;;;31.26;48.28;101156.13;4929718;28;20068;-79
2023/06/20 05:01:24;;;;;;;22.23;15.27;;;30.70;98.70;;;31.61;47.06;101158.09;4945385;28;20039;-79
2023/06/20 05:03:50;;;;;;;18.25;16.35;;;31.00;98.40;;;32.16;46.13;101167.19;4925268;28;20038;-78
2023/06/20 05:06:19;;;;;;;20.50;15.73;;;31.30;98.10;;;32.53;44.99;101178.66;4916076;28;20039;-78
2023/06/20 05:08:52;;;;;;;18.90;16.05;;;31.70;97.50;;;33.08;44.42;101175.84;4895503;28;20038;-78
2023/06/20 05:11:18;;;;;;;17.10;15.02;;;32.10;97.40;;;33.68;43.40;101184.84;4901718;28;20038;-78
2023/06/20 05:13:44;;;;;;;18.90;16.42;;;32.60;96.40;;;34.21;42.51;101192.06;4951083;28;20050;-78
2023/06/20 05:16:10;;;;;;;18.20;14.10;;;33.00;97.00;;;34.63;41.91;101194.41;4919776;28;20117;-78
2023/06/20 05:18:38;;;;;;;18.05;15.02;;;33.40;95.70;;;35.11;41.09;101202.88;4935299;28;20535;-78
2023/06/20 05:21:06;;;;;;;17.30;14.90;;;33.80;95.70;;;35.67;40.11;101205.81;4921783;28;20034;-77
2023/06/20 05:23:32;;;;;;;15.90;14.30;;;34.30;95.30;;;36.08;39.55;101213.34;4925442;28;20126;-78
2023/06/20 05:25:58;;;;;;;19.27;14.18;;;34.60;94.80;;;36.55;39.02;101224.59;4887672;28;20587;-78
2023/06/20 05:28:24;;;;;;;16.42;12.98;;;35.00;93.40;;;36.81;37.49;101229.97;4915266;28;20030;-78
2023/06/20 05:30:50;;;;;;;16.63;13.15;;;35.30;92.90;;;37.04;37.75;101232.78;4939756;28;20406;-78
2023/06/20 05:33:20;;;;;;;19.30;13.43;;;35.40;92.20;;;37.27;37.41;101231.97;4937448;28;20031;-78
2023/06/20 05:35:46;;;;;;;15.63;12.90;;;35.60;92.70;;;37.37;37.31;101242.41;4940822;28;20038;-78
2023/06/20 05:38:13;;;;;;;14.65;12.70;;;35.90;92.10;;;37.68;36.54;101249.47;4944471;28;20057;-78
2023/06/20 05:40:39;;;;;;;17.38;13.57;;;36.20;92.30;;;38.04;36.18;101255.81;4928836;28;20123;-78
2023/06/20 05:43:05;;;;;;;17.75;12.90;;;36.50;90.70;;;37.98;36.07;101256.72;4903111;28;20508;-78
2023/06/20 05:45:31;;;;;;;14.48;12.27;;;36.40;91.40;;;36.53;37.36;101240.44;4924183;28;20041;-79
2023/06/20 05:48:02;;;;;;;14.73;13.20;;;35.70;91.20;;;35.76;38.43;101226.34;4918305;28;20061;-78
2023/06/20 05:50:30;;;;;;;15.30;12.52;;;35.10;91.70;;;34.93;40.11;101217.31;4901473;28;20142;-80
2023/06/20 05:52:56;;;;;;;14.48;12.98;;;34.70;91.50;;;35.42;39.37;101222.22;4935240;28;20029;-78
2023/06/20 05:55:22;;;;;;;15.70;13.15;;;34.70;92.10;;;35.90;38.72;101216.94;4954825;28;20402;-78
2023/06/20 05:57:53;;;;;;;15.50;12.88;;;34.90;92.40;;;36.14;38.12;101215.19;4920074;28;20035;-78
2023/06/20 06:00:19;;;;;;;13.60;12.20;;;35.20;92.10;;;36.48;37.77;101221.09;4919718;28;20649;-78
2023/06/20 06:02:45;;;;;;;14.85;12.25;;;35.50;91.20;;;36.93;37.10;101230.81;4922865;28;20073;-78
2023/06/20 06:05:11;;;;;;;18.17;12.88;;;35.80;91.20;;;37.00;37.27;101227.97;4942610;28;20042;-78
2023/06/20 06:07:38;;;;;;;14.98;12.77;;;35.90;90.30;;;36.79;37.03;101232.09;4917728;28;20096;-78
2023/06/20 06:10:10;;;;;;;18.38;13.50;;;36.00;90.70;;;36.66;36.87;101230.38;4950650;28;20039;-78
2023/06/20 06:12:37;;;;;;;16.63;14.05;;;35.80;90.30;;;35.66;37.74;101217.81;4929738;28;20213;-78
2023/06/20 06:15:07;;;;;;;25.30;14.15;;;35.30;90.30;;;34.84;39.39;101207.72;4905499;28;20055;-78
2023/06/20 06:17:36;;;;;;;14.98;13.35;;;34.60;91.00;;;34.14;41.21;101196.69;4922491;28;20491;-78
2023/06/20 06:20:04;;;;;;;17.48;13.40;;;34.10;91.60;;;33.58;41.37;101186.28;4868820;28;20045;-78
2023/06/20 06:22:29;;;;;;;15.50;12.70;;;33.70;92.00;;;33.59;41.61;101191.56;4923402;28;20117;-78
2023/06/20 06:24:55;;;;;;;14.80;13.25;;;33.30;92.30;;;32.83;43.09;101190.06;4941812;28;20035;-78
2023/06/20 06:27:22;;;;;;;16.70;14.30;;;32.90;92.50;;;32.32;43.92;101182.34;4934124;28;20570;-78
2023/06/20 06:29:50;;;;;;;18.08;13.13;;;32.40;93.20;;;32.26;43.99;101174.97;4920390;28;20587;-79
2023/06/20 06:32:20;;;;;;;19.25;14.05;;;32.40;93.20;;;32.43;43.34;101170.00;4939130;28;20058;-78
2023/06/20 06:34:48;;;;;;;17.20;14.43;;;32.30;93.10;;;32.18;44.28;101169.69;4945666;28;20061;-78
2023/06/20 06:37:14;;;;;;;15.25;13.65;;;32.10;93.50;;;31.93;44.71;101156.59;4923224;28;22682;-79
2023/06/20 06:39:40;;;;;;;18.45;14.88;;;32.10;93.90;;;32.59;43.67;101166.09;4934269;28;20034;-78
2023/06/20 06:42:09;;;;;;;15.32;13.73;;;32.40;94.10;;;33.29;42.72;101166.59;4930342;28;20045;-78
2023/06/20 06:44:35;;;;;;;19.13;14.50;;;32.90;93.40;;;33.55;42.26;101178.53;4951112;28;20030;-78
2023/06/20 06:47:01;;;;;;;21.40;14.75;;;33.20;92.70;;;33.22;42.37;101174.78;4914271;28;20044;-77
2023/06/20 06:49:27;;;;;;;15.35;13.75;;;33.00;92.70;;;32.68;43.12;101175.78;4908961;28;20527;-78
2023/06/20 06:51:53;;;;;;;16.58;14.65;;;32.70;92.80;;;32.12;43.93;101163.19;4931247;28;20054;-78
2023/06/20 06:54:25;;;;;;;27.95;14.13;;;32.20;93.30;;;31.51;45.62;101152.16;4919529;28;20126;-78
2023/06/20 06:56:52;;;;;;;20.25;13.63;;;31.60;93.00;;;30.95;46.34;101151.06;4935459;28;20038;-78
2023/06/20 06:59:18;;;;;;;15.82;14.13;;;31.20;94.20;;;30.66;47.00;101154.72;4944950;28;20377;-78
2023/06/20 07:01:44;;;;;;;19.33;15.10;;;31.00;94.70;;;30.44;48.43;101146.56;4932032;28;20031;-78
2023/06/20 07:04:10;;;;;;;17.15;14.57;;;30.70;95.30;;;30.16;48.81;101146.41;4945014;28;20079;-78
2023/06/20 07:06:36;;;;;;;17.52;14.93;;;30.50;95.80;;;29.87;49.59;101149.16;4961393;28;20038;-77
2023/06/20 07:09:09;;;;;;;20.52;15.00;;;30.20;95.80;;;29.64;49.93;101140.06;4935890;28;20034;-78
2023/06/20 07:11:35;;;;;;;17.23;14.23;;;30.00;96.40;;;29.55;50.74;101143.91;4909096;28;20046;-78
2023/06/20 07:14:01;;;;;;;17.15;15.27;;;29.80;96.90;;;29.42;50.98;101146.41;4929942;28;20035;-77
2023/06/20 07:16:31;;;;;;;17.38;15.43;;;29.80;97.10;;;29.40;51.19;101137.63;4951883;28;20520;-78
2023/06/20 07:19:00;;;;;;;20.42;15.10;;;29.60;97.30;;;29.07;52.08;101132.47;4947180;28;20031;-78
2023/06/20 07:21:27;;;;;;;20.95;14.45;;;29.30;97.30;;;28.67;52.81;101131.78;4928287;28;20045;-77
2023/06/20 07:23:53;;;;;;;16.95;14.40;;;29.20;97.50;;;28.86;52.08;101125.03;4893717;28;20043;-78
2023/06/20 07:26:18;;;;;;;17.80;14.05;;;29.20;98.10;;;29.04;51.98;101124.72;4913647;28;20474;-78
2023/06/20 07:28:49;;;;;;;17.58;15.60;;;29.50;98.00;;;29.93;50.49;101122.09;4942636;28;20094;-78
2023/06/20 07:31:19;;;;;;;19.40;14.48;;;30.00;97.80;;;30.33;49.23;101121.78;4936281;28;20047;-78
2023/06/20 07:33:45;;;;;;;19.98;14.80;;;29.90;96.40;;;29.52;50.64;101111.69;4928646;28;20031;-77
2023/06/20 07:36:19;;;;;;;18.55;14.95;;;29.70;96.00;;;29.11;51.22;101109.41;4913973;28;20051;-78
2023/06/20 07:38:44;;;;;;;19.15;14.65;;;29.80;97.00;;;29.62;50.77;101109.56;4916879;28;20046;-77
2023/06/20 07:41:10;;;;;;;19.45;15.20;;;29.90;97.70;;;29.82;50.98;101109.00;4951698;28;20466;-77
2023/06/20 07:43:36;;;;;;;19.17;15.85;;;30.20;97.10;;;30.23;49.82;101114.72;4930172;28;20129;-78
2023/06/20 07:46:02;;;;;;;18.45;16.30;;;30.10;96.50;;;29.84;50.60;101102.38;4922069;28;20073;-78
2023/06/20 07:48:30;;;;;;;22.58;17.02;;;30.20;98.40;;;30.31;50.87;101108.38;4933150;28;20159;-78
2023/06/20 07:50:58;;;;;;;21.92;16.52;;;30.40;97.30;;;30.26;50.29;101110.81;4941958;28;20043;-78
2023/06/20 07:53:24;;;;;;;22.48;16.65;;;30.40;98.10;;;30.52;50.92;101106.69;4961996;28;20206;-78
2023/06/20 07:55:51;;;;;;;18.85;16.20;;;30.90;97.50;;;31.47;49.04;101113.63;4929036;28;20046;-77
2023/06/20 07:58:19;;;;;;;20.02;17.02;;;31.40;96.40;;;31.75;48.05;101116.28;4932732;28;20057;-78
2023/06/20 08:00:47;;;;;;;20.13;17.38;;;31.70;95.40;;;31.70;47.76;101117.94;4942567;28;20603;-77
2023/06/20 08:03:13;;;;;;;21.02;15.93;;;32.10;95.90;;;32.40;46.16;101124.94;4895741;28;20039;-77
2023/06/20 08:05:39;;;;;;;17.95;15.23;;;32.10;93.50;;;32.06;45.52;101126.72;4948058;28;20170;-77
2023/06/20 08:08:05;;;;;;;19.23;15.20;;;32.00;94.00;;;31.57;47.07;101122.25;4949050;28;20041;-77
2023/06/20 08:10:30;;;;;;;24.08;14.35;;;31.80;95.50;;;31.23;49.63;101120.31;4937971;28;20035;-77
2023/06/20 08:12:56;;;;;;;15.65;12.82;;;31.80;94.50;;;31.23;48.47;101117.59;4946002;28;20146;-78
2023/06/20 08:15:22;;;;;;;20.42;13.00;;;31.50;95.10;;;30.63;49.72;101106.22;4950546;28;20035;-77
2023/06/20 08:17:52;;;;;;;16.88;13.40;;;31.20;96.40;;;30.56;51.17;101118.88;4961930;28;20046;-78
2023/06/20 08:20:19;;;;;;;18.90;12.68;;;30.70;96.40;;;29.90;51.78;101111.63;4953013;28;20050;-77
2023/06/20 08:22:45;;;;;;;16.25;12.80;;;30.70;96.90;;;30.25;50.79;101117.25;4935534;28;20042;-77
2023/06/20 08:25:11;;;;;;;14.63;11.85;;;30.80;96.90;;;30.87;49.68;101126.75;4876420;28;20085;-77
2023/06/20 08:27:37;;;;;;;15.38;11.32;;;31.00;97.70;;;31.14;49.80;101118.78;4929694;28;20495;-77
2023/06/20 08:30:03;;;;;;;15.80;11.20;;;31.20;96.80;;;31.30;48.81;101123.94;4944129;28;20054;-78
2023/06/20 08:32:29;;;;;;;13.80;11.98;;;31.30;96.90;;;31.28;49.55;101126.03;4913239;28;20041;-78
2023/06/20 08:34:57;;;;;;;12.52;11.20;;;31.20;97.60;;;31.13;49.66;101123.41;4905198;28;20038;-78
2023/06/20 08:37:23;;;;;;;14.20;11.30;;;30.90;96.20;;;30.57;50.32;101120.56;4911361;28;20056;-77
2023/06/20 08:39:49;;;;;;;13.68;11.00;;;31.00;96.70;;;30.76;50.33;101117.19;4913202;28;20043;-78
2023/06/20 08:42:15;;;;;;;12.32;10.80;;;30.50;95.70;;;29.95;51.07;101095.59;4942278;28;20051;-77
2023/06/20 08:44:41;;;;;;;14.35;11.40;;;30.50;96.80;;;29.98;52.04;101102.53;4941948;28;21255;-78
2023/06/20 08:47:09;;;;;;;14.55;10.35;;;30.60;97.50;;;30.40;51.42;101109.09;4961072;28;20036;-78
2023/06/20 08:49:39;;;;;;;11.40;10.30;;;30.80;96.80;;;30.68;50.10;101111.91;4941844;28;20117;-77
2023/06/20 08:52:19;;;;;;;13.10;9.73;;;30.90;97.10;;;30.76;51.64;101117.19;4910224;28;20086;-77
2023/06/20 08:54:45;;;;;;;10.30;8.38;;;31.00;96.50;;;30.89;50.16;101115.66;4952129;28;20051;-78
2023/06/20 08:57:11;;;;;;;11.93;9.18;;;31.00;94.80;;;30.73;48.81;101114.84;4953811;28;20039;-76
2023/06/20 08:59:37;;;;;;;15.73;8.45;;;31.00;94.80;;;30.77;48.33;101118.88;4961907;28;20426;-77
2023/06/20 09:02:11;;;;;;;10.60;8.80;;;30.80;95.10;;;30.50;49.08;101116.94;4923173;28;20114;-77
2023/06/20 09:04:37;;;;;;;14.73;9.02;;;30.70;94.40;;;30.10;49.03;101121.91;4945506;28;20532;-78
2023/06/20 09:07:17;;;;;;;10.68;9.27;;;30.50;95.30;;;29.82;50.11;101109.00;4949419;28;20035;-77
2023/06/20 09:09:44;;;;;;;13.38;9.98;;;30.20;95.80;;;29.59;51.01;101112.66;4939871;28;20046;-76
2023/06/20 09:12:14;;;;;;;10.60;9.00;;;30.10;95.60;;;29.58;50.91;101102.81;4943224;28;20403;-76
2023/06/20 09:14:45;;;;;;;13.50;9.88;;;29.90;96.20;;;29.36;51.50;101104.59;4927000;28;20415;-77
2023/06/20 09:17:12;;;;;;;13.65;9.70;;;30.00;97.60;;;29.76;52.35;101113.34;4962805;28;20047;-77
2023/06/20 09:19:46;;;;;;;16.73;10.35;;;30.20;95.80;;;30.09;49.94;101115.63;4947576;28;20035;-77
2023/06/20 09:22:16;;;;;;;14.85;9.75;;;30.40;96.10;;;30.21;49.86;101114.09;4938410;28;20054;-76
2023/06/20 09:24:47;;;;;;;11.70;10.48;;;30.50;95.50;;;30.26;48.86;101116.25;4947168;28;20038;-77
2023/06/20 09:27:15;;;;;;;14.32;10.07;;;30.50;95.60;;;30.26;49.69;101116.25;4946297;28;20506;-77
2023/06/20 09:30:00;;;;;;;11.60;10.40;;;30.70;95.50;;;30.77;48.91;101121.59;4922884;28;20035;-77
2023/06/20 09:32:26;;;;;;;13.70;10.85;;;31.00;95.80;;;30.91;48.91;101119.00;4921129;28;20047;-78
2023/06/20 09:35:01;;;;;;;16.33;11.00;;;31.00;96.00;;;30.91;48.68;101119.00;4952245;28;20031;-77
2023/06/20 09:37:42;;;;;;;17.58;10.57;;;31.20;95.10;;;31.20;48.78;101123.44;4942614;28;20035;-78
2023/06/20 09:40:22;;;;;;;12.93;9.82;;;31.20;94.10;;;31.01;48.33;101127.69;4962484;28;20058;-76
2023/06/20 09:43:00;;;;;;;11.45;10.10;;;31.30;95.10;;;30.78;48.35;101127.88;4963402;28;20101;-77
2023/06/20 09:45:29;;;;;;;13.68;10.90;;;31.30;95.30;;;30.85;49.04;101132.34;4956619;28;20039;-76
2023/06/20 09:47:57;;;;;;;14.07;11.30;;;31.20;95.10;;;30.82;48.65;101127.31;4961341;28;20085;-77
2023/06/20 09:50:26;;;;;;;12.57;10.52;;;31.10;94.80;;;30.81;48.62;101127.50;4948345;28;20118;-77
2023/06/20 09:53:29;;;;;;;10.63;8.98;;;30.80;94.80;;;30.26;49.96;101121.69;4962803;28;20566;-77
2023/06/20 09:56:09;;;;;;;11.90;9.43;;;30.80;96.00;;;30.41;50.00;101118.94;4961980;28;20035;-76
2023/06/20 09:58:47;;;;;;;15.20;10.18;;;30.50;95.40;;;29.87;49.83;101120.16;4921841;28;20487;-76
2023/06/20 10:01:20;;;;;;;12.80;8.65;;;30.40;96.30;;;29.93;50.52;101113.13;4948194;28;20038;-76
2023/06/20 10:03:49;;;;;;;16.52;9.52;;;30.00;96.20;;;29.37;52.29;101103.56;4961503;28;21060;-77
2023/06/20 10:06:19;;;;;;;12.77;9.57;;;30.00;97.80;;;29.41;52.41;101104.88;4956646;28;20053;-77
2023/06/20 10:08:48;;;;;;;15.40;9.77;;;29.80;97.10;;;29.39;52.37;101098.78;4963337;28;20058;-76
2023/06/20 10:11:17;;;;;;;14.27;10.60;;;30.00;97.60;;;29.60;52.32;101098.03;4955027;28;20062;-77